createdAt,value
2018-08-07T00:01:23.651Z,22.40
2018-08-07T00:03:51.243Z,22.40
2018-08-07T00:06:18.963Z,22.40
2018-08-07T00:08:46.580Z,22.40
2018-08-07T00:11:14.115Z,22.40
2018-08-07T00:13:41.730Z,22.20
2018-08-07T00:16:09.329Z,22.40
2018-08-07T00:18:36.859Z,22.30
2018-08-07T00:21:04.471Z,22.20
2018-08-07T00:23:32.010Z,22.10
2018-08-07T00:25:59.556Z,22.20
2018-08-07T00:28:27.114Z,22.10
2018-08-07T00:30:54.785Z,22.20
2018-08-07T00:33:22.331Z,22.20
2018-08-07T00:35:49.868Z,22.30
2018-08-07T00:38:17.431Z,22.50
2018-08-07T00:40:44.998Z,22.40
2018-08-07T00:43:12.530Z,22.30
2018-08-07T00:48:07.589Z,22.40
2018-08-07T00:50:35.190Z,22.40
2018-08-07T00:55:30.243Z,22.10
2018-08-07T00:57:57.752Z,22.30
2018-08-07T01:00:26.666Z,22.20
2018-08-07T01:02:54.234Z,22.10
2018-08-07T01:05:21.823Z,22.00
2018-08-07T01:07:49.407Z,22.20
2018-08-07T01:10:17.979Z,22.00
2018-08-07T01:12:45.562Z,21.90
2018-08-07T01:15:15.258Z,21.90
2018-08-07T01:17:43.442Z,21.80
2018-08-07T01:20:13.019Z,21.80
2018-08-07T01:22:41.010Z,21.90
2018-08-07T01:25:13.032Z,22.00
2018-08-07T01:27:40.546Z,22.00
2018-08-07T01:30:10.470Z,21.90
2018-08-07T01:32:38.208Z,21.80
2018-08-07T01:35:06.007Z,21.80
2018-08-07T01:37:33.663Z,21.90
2018-08-07T01:40:01.209Z,21.80
2018-08-07T01:42:28.752Z,22.00
2018-08-07T01:44:56.271Z,21.80
2018-08-07T01:47:23.822Z,21.90
2018-08-07T01:49:51.356Z,22.00
2018-08-07T01:52:18.899Z,22.10
2018-08-07T01:59:41.644Z,21.70
2018-08-07T02:02:09.184Z,21.80
2018-08-07T02:04:36.720Z,21.80
2018-08-07T02:07:04.526Z,22.00
2018-08-07T02:09:32.054Z,21.90
2018-08-07T02:14:27.187Z,21.80
2018-08-07T02:16:54.722Z,21.70
2018-08-07T02:19:22.256Z,21.80
2018-08-07T02:21:49.806Z,21.70
2018-08-07T02:24:17.331Z,21.60
2018-08-07T02:26:44.882Z,21.50
2018-08-07T02:29:12.389Z,21.50
2018-08-07T02:31:40.147Z,21.70
2018-08-07T02:34:07.679Z,21.60
2018-08-07T02:36:35.323Z,21.40
2018-08-07T02:39:03.263Z,21.40
2018-08-07T02:41:30.831Z,21.30
2018-08-07T02:43:58.333Z,21.40
2018-08-07T02:46:25.923Z,21.10
2018-08-07T02:48:53.423Z,21.20
2018-08-07T02:51:20.994Z,21.30
2018-08-07T02:53:48.700Z,21.30
2018-08-07T02:56:16.229Z,21.40
2018-08-07T02:58:43.749Z,21.30
2018-08-07T03:01:11.291Z,21.30
2018-08-07T03:03:38.833Z,21.20
2018-08-07T03:11:01.395Z,21.20
2018-08-07T03:13:28.916Z,21.10
2018-08-07T03:15:56.440Z,21.00
2018-08-07T03:18:23.978Z,21.10
2018-08-07T03:23:19.041Z,21.10
2018-08-07T03:25:46.564Z,21.10
2018-08-07T03:30:41.582Z,21.00
2018-08-07T03:33:09.185Z,21.00
2018-08-07T03:35:36.661Z,21.00
2018-08-07T03:38:04.284Z,20.90
2018-08-07T03:40:31.893Z,20.90
2018-08-07T03:42:59.422Z,20.90
2018-08-07T03:45:26.979Z,20.90
2018-08-07T03:47:54.500Z,21.00
2018-08-07T03:50:22.045Z,20.90
2018-08-07T03:52:49.655Z,20.90
2018-08-07T03:55:18.317Z,20.90
2018-08-07T03:57:46.215Z,20.80
2018-08-07T04:00:17.018Z,20.70
2018-08-07T04:02:44.699Z,20.70
2018-08-07T04:05:12.363Z,20.80
2018-08-07T04:07:39.947Z,20.80
2018-08-07T04:10:10.435Z,20.80
2018-08-07T04:12:38.123Z,20.70
2018-08-07T04:15:07.493Z,20.80
2018-08-07T04:17:35.078Z,20.60
2018-08-07T04:20:02.660Z,20.70
2018-08-07T04:22:30.184Z,20.70
2018-08-07T04:24:57.690Z,20.80
2018-08-07T04:29:52.767Z,20.80
2018-08-07T04:32:20.278Z,20.90
2018-08-07T04:34:47.812Z,20.80
2018-08-07T04:37:15.426Z,20.80
2018-08-07T04:39:42.975Z,20.90
2018-08-07T04:42:10.783Z,20.80
2018-08-07T04:44:38.337Z,20.90
2018-08-07T04:47:05.841Z,21.00
2018-08-07T04:52:00.836Z,21.00
2018-08-07T04:54:28.379Z,21.00
2018-08-07T04:56:55.884Z,21.00
2018-08-07T04:59:23.439Z,20.90
2018-08-07T05:01:50.990Z,20.90
2018-08-07T05:04:18.520Z,21.00
2018-08-07T05:09:13.551Z,21.10
2018-08-07T05:14:11.823Z,21.10
2018-08-07T05:16:39.342Z,21.10
2018-08-07T05:19:07.014Z,21.30
2018-08-07T05:21:34.556Z,21.40
2018-08-07T05:24:02.103Z,21.30
2018-08-07T05:26:29.600Z,21.30
2018-08-07T05:28:57.181Z,21.40
2018-08-07T05:31:24.762Z,21.30
2018-08-07T05:33:52.415Z,21.40
2018-08-07T05:36:19.971Z,21.30
2018-08-07T05:38:47.532Z,21.40
2018-08-07T05:41:15.101Z,21.50
2018-08-07T05:43:42.686Z,21.60
2018-08-07T05:46:10.263Z,21.60
2018-08-07T05:48:37.787Z,21.70
2018-08-07T05:51:05.884Z,21.60
2018-08-07T05:53:33.247Z,21.70
2018-08-07T05:56:00.910Z,21.90
2018-08-07T05:58:28.434Z,22.00
2018-08-07T06:00:55.966Z,22.10
2018-08-07T06:03:23.627Z,22.00
2018-08-07T06:08:18.702Z,22.00
2018-08-07T06:10:46.375Z,22.10
2018-08-07T06:13:13.892Z,22.10
2018-08-07T06:15:41.453Z,22.10
2018-08-07T06:18:09.058Z,22.20
2018-08-07T06:20:36.699Z,22.20
2018-08-07T06:23:04.200Z,22.20
2018-08-07T06:25:31.922Z,22.30
2018-08-07T06:27:59.426Z,22.50
2018-08-07T06:32:54.459Z,22.60
2018-08-07T06:35:21.991Z,22.70
2018-08-07T06:40:17.114Z,22.70
2018-08-07T06:42:44.660Z,22.90
2018-08-07T06:45:13.673Z,23.00
2018-08-07T06:47:41.279Z,23.00
2018-08-07T06:50:11.734Z,23.10
2018-08-07T06:52:39.230Z,23.20
2018-08-07T06:55:07.874Z,23.30
2018-08-07T06:57:35.435Z,23.40
2018-08-07T07:00:04.392Z,23.30
2018-08-07T07:02:31.905Z,23.50
2018-08-07T07:07:26.913Z,23.70
2018-08-07T07:12:22.039Z,23.90
2018-08-07T07:14:49.737Z,24.10
2018-08-07T07:17:17.259Z,24.10
2018-08-07T07:19:44.788Z,24.10
2018-08-07T07:22:12.357Z,24.20
2018-08-07T07:27:07.454Z,24.40
2018-08-07T07:29:34.957Z,24.50
2018-08-07T07:32:02.516Z,24.50
2018-08-07T07:34:30.081Z,24.60
2018-08-07T07:36:57.635Z,24.70
2018-08-07T07:39:25.131Z,24.80
2018-08-07T07:41:52.709Z,24.80
2018-08-07T07:46:47.955Z,25.00
2018-08-07T07:49:15.455Z,25.20
2018-08-07T07:51:43.130Z,25.20
2018-08-07T07:54:10.608Z,25.40
2018-08-07T07:56:38.364Z,25.40
2018-08-07T07:59:05.902Z,25.30
2018-08-07T08:01:33.458Z,25.40
2018-08-07T08:04:00.993Z,25.60
2018-08-07T08:06:28.576Z,25.70
2018-08-07T08:08:56.114Z,25.70
2018-08-07T08:11:23.688Z,25.70
2018-08-07T08:13:51.261Z,25.80
2018-08-07T08:16:18.818Z,26.00
2018-08-07T08:18:46.326Z,26.10
2018-08-07T08:23:41.351Z,26.20
2018-08-07T08:26:08.914Z,26.20
2018-08-07T08:28:36.463Z,26.30
2018-08-07T08:31:04.016Z,26.30
2018-08-07T08:33:32.249Z,26.50
2018-08-07T08:35:59.903Z,26.60
2018-08-07T08:38:27.444Z,26.70
2018-08-07T08:40:54.985Z,26.80
2018-08-07T08:43:22.507Z,26.80
2018-08-07T08:45:50.066Z,26.80
2018-08-07T08:48:17.605Z,27.00
2018-08-07T08:50:45.123Z,27.10
2018-08-07T08:53:12.656Z,27.20
2018-08-07T08:55:40.226Z,27.30
2018-08-07T08:58:07.754Z,27.30
2018-08-07T09:00:35.286Z,27.40
2018-08-07T09:03:03.505Z,27.60
2018-08-07T09:07:58.817Z,27.60
2018-08-07T09:10:28.744Z,27.80
2018-08-07T09:12:57.098Z,27.80
2018-08-07T09:15:24.733Z,27.90
2018-08-07T09:17:53.486Z,28.00
2018-08-07T09:20:23.024Z,28.10
2018-08-07T09:22:50.651Z,28.20
2018-08-07T09:25:18.934Z,28.20
2018-08-07T09:27:47.326Z,28.40
2018-08-07T09:30:18.266Z,28.50
2018-08-07T09:32:46.865Z,28.50
2018-08-07T09:35:15.118Z,28.50
2018-08-07T09:37:42.767Z,28.50
2018-08-07T09:40:12.786Z,28.70
2018-08-07T09:42:41.412Z,28.70
2018-08-07T09:45:11.305Z,28.90
2018-08-07T09:47:39.071Z,28.80
2018-08-07T09:50:07.250Z,28.90
2018-08-07T09:52:34.906Z,29.00
2018-08-07T09:55:02.570Z,29.00
2018-08-07T09:57:30.229Z,29.10
2018-08-07T09:59:57.889Z,29.10
2018-08-07T10:02:31.020Z,29.30
2018-08-07T10:04:59.655Z,29.40
2018-08-07T10:07:27.324Z,29.60
2018-08-07T10:09:54.963Z,29.60
2018-08-07T10:12:22.656Z,29.60
2018-08-07T10:14:50.208Z,29.80
2018-08-07T10:17:17.780Z,29.90
2018-08-07T10:19:45.285Z,30.00
2018-08-07T10:22:12.984Z,29.90
2018-08-07T10:24:40.527Z,30.00
2018-08-07T10:27:44.152Z,29.90
2018-08-07T10:30:14.177Z,30.00
2018-08-07T10:32:42.036Z,30.30
2018-08-07T10:35:10.478Z,30.40
2018-08-07T10:37:37.915Z,30.30
2018-08-07T10:40:07.360Z,30.30
2018-08-07T10:42:34.999Z,30.20
2018-08-07T10:45:02.507Z,30.30
2018-08-07T10:47:29.996Z,30.50
2018-08-07T10:49:57.411Z,30.50
2018-08-07T10:52:24.819Z,30.60
2018-08-07T10:54:52.294Z,30.80
2018-08-07T10:57:19.713Z,30.70
2018-08-07T10:59:47.181Z,30.70
2018-08-07T11:02:14.619Z,30.90
2018-08-07T11:04:42.079Z,31.00
2018-08-07T11:07:09.506Z,31.00
2018-08-07T11:09:37.155Z,31.10
2018-08-07T11:12:04.571Z,31.20
2018-08-07T11:14:32.082Z,31.30
2018-08-07T11:16:59.548Z,31.30
2018-08-07T11:19:27.075Z,31.10
2018-08-07T11:21:54.506Z,31.20
2018-08-07T11:24:22.000Z,31.30
2018-08-07T11:26:49.427Z,31.50
2018-08-07T11:29:16.900Z,31.60
2018-08-07T11:31:44.337Z,31.60
2018-08-07T11:34:11.801Z,31.60
2018-08-07T11:36:39.228Z,31.60
2018-08-07T11:39:07.778Z,31.70
2018-08-07T11:41:35.227Z,31.70
2018-08-07T11:44:03.406Z,31.80
2018-08-07T11:46:30.888Z,31.90
2018-08-07T11:48:58.314Z,32.00
2018-08-07T11:51:25.735Z,32.20
2018-08-07T11:53:53.200Z,32.30
2018-08-07T11:56:20.696Z,32.10
2018-08-07T11:58:48.134Z,32.30
2018-08-07T12:01:15.572Z,32.20
2018-08-07T12:03:43.070Z,32.50
2018-08-07T12:06:10.504Z,32.50
2018-08-07T12:08:37.940Z,32.80
2018-08-07T12:11:05.674Z,32.70
2018-08-07T12:13:33.113Z,32.90
2018-08-07T12:16:00.539Z,32.90
2018-08-07T12:18:27.963Z,33.00
2018-08-07T12:20:55.404Z,33.10
2018-08-07T12:23:22.842Z,33.20
2018-08-07T12:25:50.268Z,33.20
2018-08-07T12:28:17.884Z,33.20
2018-08-07T12:30:45.351Z,33.20
2018-08-07T12:33:12.760Z,33.40
2018-08-07T12:35:40.266Z,33.20
2018-08-07T12:38:07.692Z,33.40
2018-08-07T12:40:35.187Z,33.50
2018-08-07T12:43:03.351Z,33.70
2018-08-07T12:45:30.915Z,33.80
2018-08-07T12:47:58.439Z,33.70
2018-08-07T12:50:25.898Z,33.70
2018-08-07T12:52:53.333Z,33.80
2018-08-07T12:55:21.923Z,33.80
2018-08-07T12:57:50.035Z,34.00
2018-08-07T13:00:22.735Z,34.00
2018-08-07T13:02:50.206Z,33.90
2018-08-07T13:05:23.759Z,34.00
2018-08-07T13:07:51.189Z,34.10
2018-08-07T13:10:21.050Z,34.30
2018-08-07T13:12:49.293Z,34.40
2018-08-07T13:15:18.006Z,34.40
2018-08-07T13:17:45.855Z,34.50
2018-08-07T13:20:13.277Z,34.40
2018-08-07T13:22:41.810Z,34.20
2018-08-07T13:25:11.794Z,34.20
2018-08-07T13:27:39.500Z,34.40
2018-08-07T13:30:10.889Z,34.70
2018-08-07T13:32:38.390Z,34.90
2018-08-07T13:35:05.942Z,34.80
2018-08-07T13:37:33.370Z,34.70
2018-08-07T13:40:00.822Z,34.40
2018-08-07T13:42:28.346Z,34.60
2018-08-07T13:44:55.700Z,34.80
2018-08-07T13:47:23.160Z,34.90
2018-08-07T13:49:50.681Z,35.00
2018-08-07T13:52:18.238Z,35.10
2018-08-07T13:54:45.643Z,35.20
2018-08-07T13:57:13.150Z,35.40
2018-08-07T13:59:40.559Z,35.60
2018-08-07T14:02:08.282Z,35.60
2018-08-07T14:04:35.732Z,35.50
2018-08-07T14:07:03.191Z,35.30
2018-08-07T14:09:30.628Z,35.50
2018-08-07T14:11:58.095Z,35.60
2018-08-07T14:14:25.573Z,35.90
2018-08-07T14:16:53.064Z,36.20
2018-08-07T14:19:20.483Z,36.40
2018-08-07T14:21:48.020Z,36.50
2018-08-07T14:24:15.472Z,36.20
2018-08-07T14:26:42.932Z,36.20
2018-08-07T14:29:10.389Z,36.40
2018-08-07T14:31:37.951Z,36.20
2018-08-07T14:34:05.422Z,35.70
2018-08-07T14:36:32.910Z,35.60
2018-08-07T14:39:00.272Z,35.20
2018-08-07T14:41:27.768Z,34.80
2018-08-07T14:43:55.179Z,34.70
2018-08-07T14:46:22.671Z,34.50
2018-08-07T14:48:50.096Z,34.90
2018-08-07T14:51:17.523Z,35.20
2018-08-07T14:53:44.931Z,35.40
2018-08-07T14:56:12.352Z,35.40
2018-08-07T14:58:39.827Z,35.40
2018-08-07T15:01:07.271Z,35.40
2018-08-07T15:03:34.776Z,35.90
2018-08-07T15:06:02.203Z,36.70
2018-08-07T15:08:29.642Z,36.80
2018-08-07T15:10:57.058Z,37.80
2018-08-07T15:13:24.503Z,39.10
2018-08-07T15:15:51.922Z,40.20
2018-08-07T15:18:19.394Z,39.60
2018-08-07T15:20:46.821Z,39.30
2018-08-07T15:23:14.234Z,40.10
2018-08-07T15:25:41.667Z,41.00
2018-08-07T15:28:09.115Z,41.60
2018-08-07T15:30:36.646Z,41.80
2018-08-07T15:33:04.254Z,42.90
2018-08-07T15:35:31.671Z,42.80
2018-08-07T15:37:59.386Z,43.10
2018-08-07T15:40:26.827Z,42.70
2018-08-07T15:42:54.390Z,43.40
2018-08-07T15:45:23.161Z,43.50
2018-08-07T15:47:50.948Z,43.80
2018-08-07T15:50:19.127Z,44.20
2018-08-07T15:52:48.122Z,44.80
2018-08-07T15:55:17.675Z,45.10
2018-08-07T15:57:45.187Z,43.90
2018-08-07T16:00:16.503Z,44.00
2018-08-07T16:02:44.326Z,43.40
2018-08-07T16:05:11.776Z,43.50
2018-08-07T16:07:39.346Z,44.10
2018-08-07T16:10:09.426Z,43.60
2018-08-07T16:12:36.859Z,42.20
2018-08-07T16:15:05.055Z,42.50
2018-08-07T16:17:32.488Z,41.50
2018-08-07T16:19:59.912Z,42.30
2018-08-07T16:22:27.411Z,43.70
2018-08-07T16:24:54.826Z,43.50
2018-08-07T16:27:22.283Z,43.70
2018-08-07T16:29:49.812Z,44.70
2018-08-07T16:32:17.225Z,44.00
2018-08-07T16:34:44.676Z,43.90
2018-08-07T16:37:12.113Z,43.60
2018-08-07T16:39:39.543Z,43.60
2018-08-07T16:42:06.945Z,43.80
2018-08-07T16:44:34.398Z,43.20
2018-08-07T16:47:01.822Z,43.60
2018-08-07T16:49:29.317Z,43.20
2018-08-07T16:51:56.755Z,43.00
2018-08-07T16:54:24.223Z,42.90
2018-08-07T16:56:51.732Z,43.70
2018-08-07T16:59:19.148Z,44.20
2018-08-07T17:01:46.572Z,44.60
2018-08-07T17:04:14.063Z,43.90
2018-08-07T17:06:41.454Z,43.50
2018-08-07T17:09:10.198Z,42.80
2018-08-07T17:11:37.623Z,42.30
2018-08-07T17:14:05.468Z,42.70
2018-08-07T17:16:32.973Z,43.00
2018-08-07T17:19:00.531Z,42.90
2018-08-07T17:21:27.983Z,42.90
2018-08-07T17:23:55.448Z,42.60
2018-08-07T17:26:22.870Z,42.20
2018-08-07T17:28:50.346Z,42.40
2018-08-07T17:31:17.823Z,41.90
2018-08-07T17:33:45.239Z,40.80
2018-08-07T17:36:12.657Z,41.20
2018-08-07T17:38:40.179Z,40.70
2018-08-07T17:41:07.640Z,40.80
2018-08-07T17:43:35.116Z,40.10
2018-08-07T17:46:02.560Z,40.10
2018-08-07T17:48:30.108Z,40.30
2018-08-07T17:50:57.563Z,39.90
2018-08-07T17:53:25.033Z,39.50
2018-08-07T17:55:52.443Z,39.30
2018-08-07T17:58:19.928Z,38.90
2018-08-07T18:00:47.354Z,38.00
2018-08-07T18:03:14.844Z,37.20
2018-08-07T18:05:42.283Z,36.80
2018-08-07T18:08:09.783Z,36.40
2018-08-07T18:10:37.683Z,35.90
2018-08-07T18:13:05.207Z,35.90
2018-08-07T18:15:32.677Z,35.70
2018-08-07T18:18:00.105Z,35.50
2018-08-07T18:20:27.770Z,35.40
2018-08-07T18:22:55.222Z,35.20
2018-08-07T18:25:22.782Z,35.20
2018-08-07T18:27:50.327Z,34.90
2018-08-07T18:30:19.429Z,34.70
2018-08-07T18:32:46.963Z,34.60
2018-08-07T18:35:16.401Z,34.40
2018-08-07T18:37:43.875Z,34.10
2018-08-07T18:40:11.312Z,33.90
2018-08-07T18:42:38.728Z,33.70
2018-08-07T18:45:08.463Z,33.40
2018-08-07T18:47:36.107Z,33.20
2018-08-07T18:50:05.248Z,33.00
2018-08-07T18:52:32.684Z,32.80
2018-08-07T18:55:00.168Z,32.60
2018-08-07T18:57:27.786Z,32.30
2018-08-07T18:59:55.206Z,32.30
2018-08-07T19:02:22.699Z,32.10
2018-08-07T19:04:50.359Z,32.10
2018-08-07T19:07:17.812Z,31.80
2018-08-07T19:09:45.384Z,31.70
2018-08-07T19:12:12.806Z,31.70
2018-08-07T19:14:40.259Z,31.60
2018-08-07T19:17:07.695Z,31.50
2018-08-07T19:19:35.206Z,31.50
2018-08-07T19:22:02.671Z,31.40
2018-08-07T19:24:30.120Z,31.30
2018-08-07T19:26:57.649Z,31.30
2018-08-07T19:29:25.232Z,31.10
2018-08-07T19:31:52.618Z,31.00
2018-08-07T19:34:20.072Z,30.90
2018-08-07T19:36:47.507Z,30.80
2018-08-07T19:39:14.948Z,30.80
2018-08-07T19:41:42.397Z,30.80
2018-08-07T19:44:09.889Z,30.70
2018-08-07T19:46:37.735Z,30.60
2018-08-07T19:49:05.170Z,30.40
2018-08-07T19:51:32.759Z,30.40
2018-08-07T19:54:00.388Z,30.30
2018-08-07T19:56:28.088Z,30.10
2018-08-07T19:58:55.490Z,30.00
2018-08-07T20:01:23.702Z,30.50
2018-08-07T20:03:52.082Z,30.40
2018-08-07T20:06:20.934Z,30.30
2018-08-07T20:08:48.409Z,30.00
2018-08-07T20:11:15.885Z,30.00
2018-08-07T20:13:43.308Z,29.90
2018-08-07T20:16:10.808Z,30.10
2018-08-07T20:18:38.220Z,30.20
2018-08-07T20:21:06.584Z,30.10
2018-08-07T20:23:35.559Z,29.90
2018-08-07T20:26:03.169Z,29.90
2018-08-07T20:28:30.603Z,30.00
2018-08-07T20:30:58.244Z,30.10
2018-08-07T20:33:25.845Z,30.00
2018-08-07T20:35:53.409Z,30.10
2018-08-07T20:38:21.594Z,30.40
2018-08-07T20:40:49.114Z,30.10
2018-08-07T20:43:16.519Z,29.90
2018-08-07T20:45:43.955Z,29.90
2018-08-07T20:48:11.609Z,29.80
2018-08-07T20:50:39.046Z,30.00
2018-08-07T20:53:06.493Z,30.00
2018-08-07T20:55:34.021Z,30.10
2018-08-07T20:58:01.468Z,30.30
2018-08-07T21:00:28.884Z,30.00
2018-08-07T21:02:56.349Z,30.10
2018-08-07T21:05:24.388Z,30.00
2018-08-07T21:07:51.955Z,29.90
2018-08-07T21:10:24.919Z,29.80
2018-08-07T21:12:52.383Z,29.90
2018-08-07T21:15:19.963Z,29.60
2018-08-07T21:17:47.537Z,29.60
2018-08-07T21:20:16.766Z,29.70
2018-08-07T21:22:44.525Z,29.60
2018-08-07T21:25:14.207Z,29.50
2018-08-07T21:27:42.092Z,29.60
2018-08-07T21:30:27.548Z,29.70
2018-08-07T21:32:54.948Z,29.60
2018-08-07T21:35:22.415Z,29.50
2018-08-07T21:37:49.918Z,29.50
2018-08-07T21:40:19.010Z,29.40
2018-08-07T21:42:47.142Z,29.40
2018-08-07T21:45:14.724Z,29.50
2018-08-07T21:47:42.356Z,29.20
2018-08-07T21:50:11.830Z,29.30
2018-08-07T21:52:39.344Z,29.30
2018-08-07T21:55:08.369Z,29.30
2018-08-07T21:57:36.036Z,29.40
2018-08-07T22:00:08.596Z,29.30
2018-08-07T22:02:36.152Z,29.00
2018-08-07T22:05:04.129Z,28.90
2018-08-07T22:07:31.613Z,28.90
2018-08-07T22:09:59.076Z,28.80
2018-08-07T22:12:26.591Z,28.90
2018-08-07T22:14:54.127Z,28.80
2018-08-07T22:17:22.649Z,28.70
2018-08-07T22:19:51.451Z,28.60
2018-08-07T22:22:20.341Z,28.50
2018-08-07T22:24:47.774Z,28.30
2018-08-07T22:27:15.211Z,28.40
2018-08-07T22:29:42.603Z,28.40
2018-08-07T22:32:10.039Z,28.30
2018-08-07T22:34:37.433Z,28.30
2018-08-07T22:37:04.919Z,28.30
2018-08-07T22:39:36.054Z,28.50
2018-08-07T22:42:03.540Z,28.60
2018-08-07T22:44:30.955Z,28.60
2018-08-07T22:46:58.379Z,28.60
2018-08-07T22:49:26.380Z,28.50
2018-08-07T22:51:53.833Z,28.50
2018-08-07T22:54:22.327Z,28.50
2018-08-07T22:56:49.813Z,28.50
2018-08-07T22:59:17.237Z,28.70
2018-08-07T23:01:44.680Z,28.50
2018-08-07T23:04:12.181Z,28.50
2018-08-07T23:06:39.641Z,28.50
2018-08-07T23:09:08.014Z,28.40
2018-08-07T23:11:35.443Z,28.50
2018-08-07T23:14:03.073Z,28.40
2018-08-07T23:16:30.491Z,28.40
2018-08-07T23:18:57.933Z,28.50
2018-08-07T23:21:25.359Z,28.40
2018-08-07T23:23:52.804Z,28.20
2018-08-07T23:26:20.439Z,28.30
2018-08-07T23:28:47.915Z,28.10
2018-08-07T23:31:15.303Z,28.20
2018-08-07T23:33:42.782Z,28.00
2018-08-07T23:36:10.187Z,27.90
2018-08-07T23:38:37.622Z,27.90
2018-08-07T23:41:05.174Z,28.00
2018-08-07T23:43:32.619Z,27.80
2018-08-07T23:46:00.043Z,27.70
2018-08-07T23:48:27.508Z,27.60
2018-08-07T23:50:54.901Z,27.50
2018-08-07T23:53:22.407Z,27.50
2018-08-07T23:55:49.904Z,27.50
2018-08-07T23:58:17.316Z,27.60
